createdAt,value
2019-04-16T00:01:53.076Z,7.65
2019-04-16T00:04:34.383Z,7.19
2019-04-16T00:07:25.180Z,7.45
2019-04-16T00:10:03.671Z,7.29
2019-04-16T00:12:52.968Z,7.22
2019-04-16T00:15:23.867Z,7.26
2019-04-16T00:17:54.650Z,7.64
2019-04-16T00:20:25.423Z,7.25
2019-04-16T00:23:06.984Z,6.98
2019-04-16T00:25:37.786Z,6.73
2019-04-16T00:28:08.558Z,6.70
2019-04-16T00:30:39.334Z,6.83
2019-04-16T00:33:10.806Z,6.80
2019-04-16T00:35:46.441Z,7.03
2019-04-16T00:38:14.981Z,6.86
2019-04-16T00:40:45.773Z,6.76
2019-04-16T00:43:16.537Z,6.78
2019-04-16T00:45:47.319Z,7.03
2019-04-16T00:48:18.090Z,6.39
2019-04-16T00:50:48.885Z,6.35
2019-04-16T00:53:19.664Z,6.64
2019-04-16T00:55:50.465Z,6.90
2019-04-16T00:58:21.237Z,6.92
2019-04-16T01:00:52.006Z,7.09
2019-04-16T01:03:22.786Z,6.84
2019-04-16T01:05:53.555Z,7.22
2019-04-16T01:08:24.436Z,6.96
2019-04-16T01:10:55.207Z,7.04
2019-04-16T01:13:25.993Z,7.24
2019-04-16T01:15:56.855Z,7.11
2019-04-16T01:18:27.744Z,6.77
2019-04-16T01:20:58.507Z,6.31
2019-04-16T01:23:29.292Z,6.31
2019-04-16T01:26:00.076Z,6.15
2019-04-16T01:28:47.957Z,6.11
2019-04-16T01:31:20.625Z,5.97
2019-04-16T01:33:59.477Z,5.50
2019-04-16T01:36:38.211Z,5.53
2019-04-16T01:39:17.936Z,5.58
2019-04-16T01:41:46.760Z,6.14
2019-04-16T01:44:17.530Z,5.50
2019-04-16T01:46:48.303Z,5.73
2019-04-16T01:49:19.072Z,5.94
2019-04-16T01:51:49.863Z,5.81
2019-04-16T01:54:22.795Z,5.61
2019-04-16T01:56:53.332Z,5.73
2019-04-16T01:59:24.097Z,5.48
2019-04-16T02:01:54.975Z,5.43
2019-04-16T02:04:25.774Z,5.45
2019-04-16T02:06:57.184Z,5.68
2019-04-16T02:09:31.237Z,5.50
2019-04-16T02:12:01.591Z,5.16
2019-04-16T02:14:32.386Z,5.28
2019-04-16T02:17:03.149Z,5.10
2019-04-16T02:19:33.919Z,5.30
2019-04-16T02:22:04.696Z,5.15
2019-04-16T02:24:35.466Z,5.26
2019-04-16T02:27:06.244Z,4.88
2019-04-16T02:29:37.010Z,4.67
2019-04-16T02:32:07.789Z,4.88
2019-04-16T02:34:38.550Z,4.87
2019-04-16T02:37:09.400Z,5.19
2019-04-16T02:39:49.011Z,5.23
2019-04-16T02:42:13.125Z,4.94
2019-04-16T02:44:48.866Z,4.79
2019-04-16T02:47:16.612Z,5.00
2019-04-16T02:49:47.380Z,5.16
2019-04-16T02:52:20.075Z,4.90
2019-04-16T02:54:56.047Z,4.76
2019-04-16T02:57:46.912Z,4.95
2019-04-16T03:00:36.242Z,4.75
2019-04-16T03:03:14.728Z,5.32
2019-04-16T03:05:47.419Z,5.02
2019-04-16T03:08:18.211Z,4.84
2019-04-16T03:10:48.987Z,5.12
2019-04-16T03:13:23.028Z,5.53
2019-04-16T03:16:09.750Z,5.26
2019-04-16T03:18:46.951Z,4.82
2019-04-16T03:21:15.189Z,4.79
2019-04-16T03:23:45.959Z,5.27
2019-04-16T03:26:18.157Z,5.02
2019-04-16T03:28:49.128Z,4.56
2019-04-16T03:31:23.169Z,4.30
2019-04-16T03:33:52.593Z,4.54
2019-04-16T03:36:23.359Z,4.49
2019-04-16T03:38:54.143Z,4.58
2019-04-16T03:41:25.795Z,4.76
2019-04-16T03:43:56.713Z,4.49
2019-04-16T03:46:27.514Z,4.26
2019-04-16T03:48:58.274Z,4.35
2019-04-16T03:51:29.037Z,4.67
2019-04-16T03:53:59.817Z,4.50
2019-04-16T03:56:31.257Z,4.56
2019-04-16T03:59:02.160Z,4.23
2019-04-16T04:01:33.029Z,4.21
2019-04-16T04:04:03.817Z,4.10
2019-04-16T04:06:36.534Z,4.02
2019-04-16T04:09:07.423Z,4.10
2019-04-16T04:11:40.885Z,3.90
2019-04-16T04:14:10.955Z,3.93
2019-04-16T04:16:41.724Z,3.97
2019-04-16T04:19:15.127Z,3.85
2019-04-16T04:21:45.230Z,3.97
2019-04-16T04:24:16.013Z,3.95
2019-04-16T04:26:46.791Z,2.76
2019-04-16T04:29:20.747Z,3.71
2019-04-16T04:31:50.388Z,3.66
2019-04-16T04:34:21.188Z,4.05
2019-04-16T04:36:51.937Z,4.49
2019-04-16T04:39:22.714Z,4.39
2019-04-16T04:41:56.412Z,4.25
2019-04-16T04:44:26.186Z,4.40
2019-04-16T04:46:56.957Z,4.49
2019-04-16T04:49:30.359Z,4.66
2019-04-16T04:52:01.272Z,4.72
2019-04-16T04:54:32.066Z,4.57
2019-04-16T04:57:02.826Z,4.59
2019-04-16T04:59:36.533Z,4.70
2019-04-16T05:02:06.300Z,4.76
2019-04-16T05:04:38.994Z,4.99
2019-04-16T05:07:11.674Z,4.91
2019-04-16T05:09:42.470Z,5.20
2019-04-16T05:12:13.364Z,5.16
2019-04-16T05:14:51.179Z,4.93
2019-04-16T05:17:23.865Z,5.10
2019-04-16T05:19:54.684Z,5.44
2019-04-16T05:22:25.462Z,5.46
2019-04-16T05:25:01.041Z,5.20
2019-04-16T05:27:29.447Z,5.23
2019-04-16T05:30:00.540Z,5.33
2019-04-16T05:32:33.915Z,5.51
2019-04-16T05:35:09.065Z,5.68
2019-04-16T05:37:37.796Z,5.82
2019-04-16T05:40:08.715Z,5.83
2019-04-16T05:42:39.467Z,5.83
2019-04-16T05:45:11.495Z,6.07
2019-04-16T05:47:42.298Z,6.19
2019-04-16T05:50:13.060Z,5.88
2019-04-16T05:52:43.836Z,5.86
2019-04-16T05:55:17.688Z,5.96
2019-04-16T05:57:51.116Z,6.05
2019-04-16T06:00:26.375Z,5.94
2019-04-16T06:02:57.156Z,5.94
2019-04-16T06:05:28.195Z,5.87
2019-04-16T06:08:09.053Z,6.21
2019-04-16T06:10:41.154Z,6.30
2019-04-16T06:13:16.820Z,6.39
2019-04-16T06:16:06.243Z,6.43
2019-04-16T06:18:55.586Z,6.82
2019-04-16T06:21:37.418Z,6.92
2019-04-16T06:24:26.713Z,7.08
2019-04-16T06:27:01.929Z,7.11
2019-04-16T06:29:49.582Z,7.50
2019-04-16T06:32:31.379Z,7.62
2019-04-16T06:35:04.961Z,7.36
2019-04-16T06:37:55.866Z,7.50
2019-04-16T06:40:40.419Z,7.58
2019-04-16T06:43:26.142Z,7.68
2019-04-16T06:46:11.788Z,7.45
2019-04-16T06:48:50.254Z,7.80
2019-04-16T06:51:31.943Z,8.08
2019-04-16T06:54:11.242Z,8.40
2019-04-16T06:57:00.733Z,8.25
2019-04-16T06:59:36.463Z,8.42
2019-04-16T07:02:10.584Z,8.63
2019-04-16T07:05:01.227Z,8.86
2019-04-16T07:07:39.945Z,9.01
2019-04-16T07:10:11.032Z,8.95
2019-04-16T07:12:41.893Z,8.77
2019-04-16T07:15:12.980Z,9.10
2019-04-16T07:17:43.755Z,9.22
2019-04-16T07:20:14.536Z,9.44
2019-04-16T07:22:45.302Z,8.69
2019-04-16T07:25:16.623Z,9.57
2019-04-16T07:27:53.748Z,9.71
2019-04-16T07:30:40.581Z,9.84
2019-04-16T07:33:13.566Z,10.30
2019-04-16T07:35:55.142Z,10.05
2019-04-16T07:38:35.142Z,10.67
2019-04-16T07:41:16.898Z,10.71
2019-04-16T07:44:07.879Z,10.98
2019-04-16T07:46:38.433Z,10.83
2019-04-16T07:49:17.167Z,11.12
2019-04-16T07:52:07.801Z,11.10
2019-04-16T07:54:49.755Z,11.71
2019-04-16T07:57:20.531Z,11.42
2019-04-16T07:59:51.304Z,11.74
2019-04-16T08:02:22.415Z,11.67
2019-04-16T08:04:53.284Z,11.64
2019-04-16T08:07:24.048Z,11.57
2019-04-16T08:09:54.817Z,11.70
2019-04-16T08:12:30.429Z,11.96
2019-04-16T08:15:11.904Z,11.79
2019-04-16T08:17:30.950Z,11.76
2019-04-16T08:20:01.728Z,12.12
2019-04-16T08:22:32.494Z,12.37
2019-04-16T08:25:04.681Z,12.75
2019-04-16T08:27:35.440Z,12.72
2019-04-16T08:30:08.529Z,12.56
2019-04-16T08:32:39.309Z,12.80
2019-04-16T08:35:10.251Z,12.89
2019-04-16T08:37:48.792Z,13.22
2019-04-16T08:40:13.832Z,13.39
2019-04-16T08:42:45.138Z,13.24
2019-04-16T08:45:16.081Z,13.31
2019-04-16T08:47:46.886Z,13.37
2019-04-16T08:50:17.666Z,13.32
2019-04-16T08:52:48.440Z,13.54
2019-04-16T08:55:20.527Z,13.98
2019-04-16T08:57:52.105Z,13.88
2019-04-16T09:00:23.198Z,14.00
2019-04-16T09:02:57.592Z,14.31
2019-04-16T09:05:27.040Z,14.69
2019-04-16T09:08:11.866Z,14.62
2019-04-16T09:10:32.487Z,15.07
2019-04-16T09:13:20.261Z,14.71
2019-04-16T09:15:51.120Z,14.44
2019-04-16T09:18:29.610Z,14.66
2019-04-16T09:21:00.505Z,15.37
2019-04-16T09:23:31.276Z,15.17
2019-04-16T09:26:13.502Z,14.71
2019-04-16T09:28:41.631Z,14.58
2019-04-16T09:31:14.355Z,14.57
2019-04-16T09:33:49.604Z,14.87
2019-04-16T09:36:22.280Z,15.00
2019-04-16T09:38:58.026Z,15.33
2019-04-16T09:41:30.953Z,14.66
2019-04-16T09:44:01.729Z,15.48
2019-04-16T09:46:50.415Z,15.77
2019-04-16T09:49:06.256Z,15.68
2019-04-16T09:51:37.164Z,15.68
2019-04-16T09:54:12.683Z,15.92
2019-04-16T09:56:41.747Z,16.57
2019-04-16T09:59:16.329Z,16.57
2019-04-16T10:01:49.244Z,16.43
2019-04-16T10:04:20.535Z,16.43
2019-04-16T10:06:51.352Z,16.11
2019-04-16T10:09:22.672Z,16.11
2019-04-16T10:11:56.983Z,16.52
2019-04-16T10:14:26.803Z,16.52
2019-04-16T10:16:57.905Z,16.62
2019-04-16T10:19:29.701Z,16.51
2019-04-16T10:22:00.501Z,16.51
2019-04-16T10:24:50.142Z,16.83
2019-04-16T10:27:22.887Z,16.88
2019-04-16T10:29:53.624Z,17.26
2019-04-16T10:32:25.924Z,17.26
2019-04-16T10:34:56.692Z,16.86
2019-04-16T10:37:27.478Z,17.20
2019-04-16T10:40:00.221Z,17.55
2019-04-16T10:42:32.884Z,17.22
2019-04-16T10:45:06.476Z,17.44
2019-04-16T10:47:48.029Z,17.67
2019-04-16T10:50:20.682Z,17.99
2019-04-16T10:52:55.690Z,17.72
2019-04-16T10:55:39.955Z,18.06
2019-04-16T10:58:29.735Z,18.35
2019-04-16T11:01:08.339Z,19.12
2019-04-16T11:03:53.071Z,18.59
2019-04-16T11:06:25.753Z,18.50
2019-04-16T11:08:56.542Z,18.27
2019-04-16T11:11:27.324Z,18.37
2019-04-16T11:14:00.097Z,18.57
2019-04-16T11:16:30.766Z,18.86
2019-04-16T11:19:01.683Z,18.75
2019-04-16T11:21:32.434Z,19.19
2019-04-16T11:24:03.205Z,19.58
2019-04-16T11:26:33.984Z,19.89
2019-04-16T11:29:05.101Z,19.72
2019-04-16T11:31:36.781Z,18.69
2019-04-16T11:34:08.890Z,18.73
2019-04-16T11:36:39.687Z,19.15
2019-04-16T11:39:11.035Z,19.71
2019-04-16T11:41:41.830Z,19.33
2019-04-16T11:44:15.592Z,19.87
2019-04-16T11:46:45.322Z,20.08
2019-04-16T11:49:16.365Z,19.67
2019-04-16T11:51:47.364Z,19.49
2019-04-16T11:54:18.191Z,20.45
2019-04-16T11:59:19.618Z,20.17
2019-04-16T12:02:09.200Z,20.31
2019-04-16T12:04:44.958Z,20.81
2019-04-16T12:07:26.564Z,19.71
2019-04-16T12:09:59.256Z,20.50
2019-04-16T12:12:34.518Z,19.14
2019-04-16T12:15:19.288Z,19.86
2019-04-16T12:17:54.547Z,21.12
2019-04-16T12:20:43.845Z,20.47
2019-04-16T12:23:22.568Z,21.05
2019-04-16T12:26:01.988Z,21.37
2019-04-16T12:28:51.926Z,21.85
2019-04-16T12:31:41.306Z,21.18
2019-04-16T12:34:14.001Z,21.14
2019-04-16T12:36:52.461Z,21.31
2019-04-16T12:39:25.144Z,21.94
2019-04-16T12:42:06.893Z,21.36
2019-04-16T12:44:45.520Z,20.89
2019-04-16T12:47:16.901Z,21.50
2019-04-16T12:50:06.284Z,22.26
2019-04-16T12:52:38.931Z,21.42
2019-04-16T12:55:31.335Z,21.04
2019-04-16T12:58:21.167Z,20.81
2019-04-16T13:01:06.093Z,21.05
2019-04-16T13:03:41.829Z,22.19
2019-04-16T13:06:14.515Z,22.27
2019-04-16T13:08:53.272Z,22.88
2019-04-16T13:11:24.704Z,22.63
2019-04-16T13:13:57.401Z,23.03
2019-04-16T13:16:30.179Z,22.45
2019-04-16T13:19:02.867Z,22.00
2019-04-16T13:21:47.589Z,22.21
2019-04-16T13:24:26.279Z,23.64
2019-04-16T13:26:58.947Z,23.82
2019-04-16T13:29:30.592Z,23.31
2019-04-16T13:32:01.812Z,23.40
2019-04-16T13:34:32.691Z,23.02
2019-04-16T13:37:03.456Z,23.67
2019-04-16T13:39:40.001Z,23.57
2019-04-16T13:42:08.924Z,24.16
2019-04-16T13:44:50.453Z,23.44
2019-04-16T13:47:21.626Z,24.05
2019-04-16T13:49:54.325Z,24.44
2019-04-16T13:52:25.509Z,23.75
2019-04-16T13:54:58.393Z,24.00
2019-04-16T13:57:33.827Z,23.55
2019-04-16T14:00:10.524Z,23.34
2019-04-16T14:02:51.254Z,24.48
2019-04-16T14:05:22.500Z,24.38
2019-04-16T14:07:53.273Z,24.34
2019-04-16T14:10:24.061Z,24.89
2019-04-16T14:12:54.828Z,24.53
2019-04-16T14:15:32.227Z,24.86
2019-04-16T14:18:00.837Z,24.21
2019-04-16T14:20:32.503Z,24.47
2019-04-16T14:23:03.273Z,24.26
2019-04-16T14:25:34.083Z,24.48
2019-04-16T14:28:06.841Z,22.64
2019-04-16T14:30:42.622Z,23.09
2019-04-16T14:33:14.118Z,22.59
2019-04-16T14:35:44.910Z,22.42
2019-04-16T14:38:17.587Z,23.05
2019-04-16T14:40:48.386Z,23.52
2019-04-16T14:43:21.055Z,23.61
2019-04-16T14:45:58.333Z,24.46
2019-04-16T14:48:25.016Z,24.62
2019-04-16T14:50:55.792Z,24.21
2019-04-16T14:53:28.465Z,24.08
2019-04-16T14:56:01.780Z,25.17
2019-04-16T14:58:40.893Z,25.34
2019-04-16T15:01:30.631Z,24.06
2019-04-16T15:04:12.591Z,23.81
2019-04-16T15:06:52.743Z,23.80
2019-04-16T15:09:37.796Z,24.19
2019-04-16T15:12:13.309Z,24.22
2019-04-16T15:14:57.709Z,24.92
2019-04-16T15:17:39.400Z,24.67
2019-04-16T15:20:24.524Z,24.17
2019-04-16T15:23:00.028Z,24.37
2019-04-16T15:25:49.261Z,24.55
2019-04-16T15:28:38.588Z,24.69
2019-04-16T15:31:19.963Z,24.49
2019-04-16T15:33:52.949Z,23.51
2019-04-16T15:36:25.633Z,23.59
2019-04-16T15:39:02.977Z,24.66
2019-04-16T15:41:41.689Z,23.35
2019-04-16T15:44:23.670Z,23.56
2019-04-16T15:47:14.834Z,24.39
2019-04-16T15:49:59.941Z,23.12
2019-04-16T15:52:38.791Z,24.55
2019-04-16T15:55:20.269Z,25.26
2019-04-16T15:57:55.996Z,23.92
2019-04-16T16:00:44.043Z,21.85
2019-04-16T16:03:34.607Z,20.93
2019-04-16T16:06:09.873Z,20.88
2019-04-16T16:08:45.595Z,20.37
2019-04-16T16:11:18.272Z,20.29
2019-04-16T16:13:49.051Z,19.79
2019-04-16T16:16:19.828Z,19.72
2019-04-16T16:18:50.610Z,19.68
2019-04-16T16:21:21.382Z,19.96
2019-04-16T16:23:52.150Z,20.07
2019-04-16T16:26:22.926Z,19.99
2019-04-16T16:28:53.737Z,20.06
2019-04-16T16:31:24.510Z,20.21
2019-04-16T16:33:55.297Z,19.72
2019-04-16T16:36:26.084Z,19.91
2019-04-16T16:38:57.359Z,18.59
2019-04-16T16:41:28.248Z,19.79
2019-04-16T16:43:59.036Z,19.64
2019-04-16T16:46:55.959Z,19.49
2019-04-16T16:49:16.532Z,19.79
2019-04-16T16:51:49.209Z,19.44
2019-04-16T16:54:21.888Z,19.72
2019-04-16T16:56:54.676Z,19.47
2019-04-16T16:59:30.258Z,19.60
2019-04-16T17:02:08.286Z,19.47
2019-04-16T17:04:37.643Z,18.81
2019-04-16T17:07:08.506Z,19.07
2019-04-16T17:09:39.284Z,18.73
2019-04-16T17:12:10.045Z,18.92
2019-04-16T17:14:40.816Z,18.62
2019-04-16T17:17:14.637Z,18.81
2019-04-16T17:19:44.282Z,18.81
2019-04-16T17:22:17.432Z,18.74
2019-04-16T17:24:47.938Z,17.99
2019-04-16T17:27:18.702Z,18.15
2019-04-16T17:29:50.793Z,18.18
2019-04-16T17:32:21.843Z,18.22
2019-04-16T17:34:52.625Z,18.09
2019-04-16T17:37:27.992Z,18.06
2019-04-16T17:39:58.018Z,17.91
2019-04-16T17:42:37.720Z,17.52
2019-04-16T17:45:22.775Z,17.52
2019-04-16T17:48:01.215Z,17.19
2019-04-16T17:50:39.497Z,17.16
2019-04-16T17:53:11.272Z,17.55
2019-04-16T17:56:00.110Z,17.55
2019-04-16T17:58:36.131Z,17.19
2019-04-16T18:01:11.058Z,16.93
2019-04-16T18:03:43.800Z,16.83
2019-04-16T18:06:22.605Z,16.83
2019-04-16T18:09:10.371Z,16.50
2019-04-16T18:11:44.715Z,16.53
2019-04-16T18:14:34.454Z,16.53
2019-04-16T18:17:26.720Z,16.50
2019-04-16T18:19:58.560Z,16.50
2019-04-16T18:22:31.214Z,16.28
2019-04-16T18:25:05.421Z,16.28
2019-04-16T18:27:40.862Z,16.37
2019-04-16T18:30:30.163Z,16.55
2019-04-16T18:33:15.115Z,15.94
2019-04-16T18:35:47.895Z,15.94
2019-04-16T18:38:24.396Z,15.80
2019-04-16T18:41:02.457Z,15.65
2019-04-16T18:43:31.649Z,15.96
2019-04-16T18:46:16.416Z,15.92
2019-04-16T18:48:55.506Z,15.97
2019-04-16T18:51:26.611Z,15.86
2019-04-16T18:53:57.501Z,15.72
2019-04-16T18:56:28.365Z,15.47
2019-04-16T18:58:59.141Z,15.68
2019-04-16T19:01:32.607Z,15.45
2019-04-16T19:04:04.109Z,15.36
2019-04-16T19:06:34.884Z,15.55
2019-04-16T19:09:06.043Z,15.52
2019-04-16T19:11:36.922Z,15.48
2019-04-16T19:14:10.327Z,15.02
2019-04-16T19:16:40.400Z,15.41
2019-04-16T19:19:11.172Z,15.07
2019-04-16T19:21:42.575Z,15.30
2019-04-16T19:24:13.701Z,15.03
2019-04-16T19:26:44.480Z,14.85
2019-04-16T19:29:15.252Z,14.69
2019-04-16T19:31:46.225Z,14.26
2019-04-16T19:34:17.087Z,14.75
2019-04-16T19:36:47.886Z,14.75
2019-04-16T19:39:18.649Z,14.55
2019-04-16T19:41:49.511Z,14.08
2019-04-16T19:44:22.159Z,14.16
2019-04-16T19:46:54.344Z,13.98
2019-04-16T19:49:25.316Z,13.69
2019-04-16T19:51:56.139Z,14.02
2019-04-16T19:54:26.886Z,14.02
2019-04-16T19:56:57.677Z,14.02
2019-04-16T19:59:28.848Z,14.05
2019-04-16T20:02:01.628Z,13.46
2019-04-16T20:04:32.341Z,13.57
2019-04-16T20:07:03.114Z,13.10
2019-04-16T20:09:33.886Z,13.20
2019-04-16T20:12:04.660Z,13.17
2019-04-16T20:14:36.468Z,13.07
2019-04-16T20:17:07.422Z,13.12
2019-04-16T20:19:57.173Z,13.15
2019-04-16T20:22:28.941Z,12.82
2019-04-16T20:24:59.713Z,12.85
2019-04-16T20:27:30.506Z,12.96
2019-04-16T20:30:01.768Z,12.98
2019-04-16T20:32:34.410Z,13.09
2019-04-16T20:35:05.409Z,12.98
2019-04-16T20:37:36.182Z,12.93
2019-04-16T20:40:06.958Z,12.37
2019-04-16T20:42:37.740Z,12.88
2019-04-16T20:45:08.596Z,12.24
2019-04-16T20:47:40.167Z,12.45
2019-04-16T20:50:11.137Z,12.80
2019-04-16T20:52:41.911Z,12.21
2019-04-16T20:55:15.682Z,12.07
2019-04-16T20:57:45.372Z,11.66
2019-04-16T21:00:18.181Z,12.11
2019-04-16T21:02:51.115Z,11.86
2019-04-16T21:05:22.663Z,11.99
2019-04-16T21:07:54.174Z,11.85
2019-04-16T21:10:24.970Z,11.75
2019-04-16T21:12:56.088Z,11.40
2019-04-16T21:15:27.509Z,11.73
2019-04-16T21:17:59.529Z,11.21
2019-04-16T21:20:30.575Z,11.23
2019-04-16T21:23:03.348Z,11.05
2019-04-16T21:25:34.046Z,10.87
2019-04-16T21:28:09.241Z,10.90
2019-04-16T21:30:43.312Z,10.83
2019-04-16T21:33:17.705Z,10.69
2019-04-16T21:35:50.165Z,11.08
2019-04-16T21:38:31.884Z,10.72
2019-04-16T21:41:02.665Z,11.01
2019-04-16T21:43:35.698Z,10.77
2019-04-16T21:46:06.114Z,10.90
2019-04-16T21:48:36.884Z,10.77
2019-04-16T21:51:07.805Z,10.39
2019-04-16T21:53:38.630Z,10.49
2019-04-16T21:56:09.405Z,10.48
2019-04-16T21:58:40.183Z,10.56
2019-04-16T22:01:15.890Z,10.68
2019-04-16T22:03:48.785Z,10.80
2019-04-16T22:06:20.312Z,10.18
2019-04-16T22:08:51.852Z,10.26
2019-04-16T22:11:22.611Z,10.18
2019-04-16T22:13:53.390Z,9.99
2019-04-16T22:16:26.695Z,9.87
2019-04-16T22:18:56.981Z,9.96
2019-04-16T22:21:27.699Z,9.83
2019-04-16T22:23:58.506Z,9.65
2019-04-16T22:26:34.221Z,9.58
2019-04-16T22:29:02.283Z,9.75
2019-04-16T22:31:33.057Z,9.62
2019-04-16T22:34:03.815Z,9.70
2019-04-16T22:36:34.603Z,10.26
2019-04-16T22:39:10.657Z,9.79
2019-04-16T22:41:45.842Z,9.46
2019-04-16T22:44:30.659Z,9.33
2019-04-16T22:47:06.004Z,9.41
2019-04-16T22:49:36.785Z,9.28
2019-04-16T22:52:07.674Z,9.56
2019-04-16T22:54:38.848Z,9.61
2019-04-16T22:57:11.518Z,10.02
2019-04-16T22:59:42.306Z,9.55
2019-04-16T23:02:18.010Z,9.71
2019-04-16T23:04:48.818Z,9.48
2019-04-16T23:07:19.594Z,9.36
2019-04-16T23:09:50.364Z,9.48
2019-04-16T23:12:21.473Z,9.99
2019-04-16T23:14:52.235Z,10.14
2019-04-16T23:17:25.171Z,9.84
2019-04-16T23:19:55.957Z,9.48
2019-04-16T23:22:26.722Z,9.10
2019-04-16T23:24:57.803Z,9.02
2019-04-16T23:27:28.569Z,9.19
2019-04-16T23:29:59.351Z,9.38
2019-04-16T23:32:30.117Z,9.07
2019-04-16T23:35:00.898Z,9.03
2019-04-16T23:37:31.662Z,9.55
2019-04-16T23:40:03.775Z,9.11
2019-04-16T23:42:36.535Z,8.87
2019-04-16T23:45:09.421Z,8.81
2019-04-16T23:47:47.944Z,8.87
2019-04-16T23:50:20.646Z,9.01
2019-04-16T23:52:55.823Z,9.04
2019-04-16T23:55:31.284Z,9.17
2019-04-16T23:58:10.112Z,8.96
